createdAt,value
2019-02-06T00:00:19.000Z,101338
2019-02-06T00:02:19.000Z,101339
2019-02-06T00:04:04.000Z,101341
2019-02-06T00:06:04.000Z,101336
2019-02-06T00:07:19.000Z,101336
2019-02-06T00:08:19.000Z,101343
2019-02-06T00:09:49.000Z,101331
2019-02-06T00:11:04.000Z,101339
2019-02-06T00:13:19.000Z,101341
2019-02-06T00:15:19.000Z,101335
2019-02-06T00:16:49.000Z,101331
2019-02-06T00:19:19.000Z,101330
2019-02-06T00:21:19.000Z,101330
2019-02-06T00:23:04.000Z,101328
2019-02-06T00:24:19.000Z,101322
2019-02-06T00:26:04.000Z,101329
2019-02-06T00:28:19.000Z,101319
2019-02-06T00:30:19.000Z,101317
2019-02-06T00:31:49.000Z,101314
2019-02-06T00:33:19.000Z,101315
2019-02-06T00:35:04.000Z,101310
2019-02-06T00:36:19.000Z,101313
2019-02-06T00:38:04.000Z,101307
2019-02-06T00:39:49.000Z,101306
2019-02-06T00:41:19.000Z,101299
2019-02-06T00:43:04.000Z,101294
2019-02-06T00:44:19.000Z,101289
2019-02-06T00:46:04.000Z,101288
2019-02-06T00:47:04.000Z,101287
2019-02-06T00:49:19.000Z,101285
2019-02-06T00:51:19.000Z,101290
2019-02-06T00:53:19.000Z,101286
2019-02-06T00:55:19.000Z,101287
2019-02-06T00:57:04.000Z,101285
2019-02-06T00:58:19.000Z,101283
2019-02-06T01:00:19.000Z,101283
2019-02-06T01:02:19.000Z,101290
2019-02-06T01:04:19.000Z,101282
2019-02-06T01:06:04.000Z,101283
2019-02-06T01:07:19.000Z,101288
2019-02-06T01:09:19.000Z,101287
2019-02-06T01:10:19.000Z,101293
2019-02-06T01:12:04.000Z,101288
2019-02-06T01:14:19.000Z,101286
2019-02-06T01:16:19.000Z,101293
2019-02-06T01:17:19.000Z,101289
2019-02-06T01:19:19.000Z,101284
2019-02-06T01:21:04.000Z,101281
2019-02-06T01:22:19.000Z,101287
2019-02-06T01:23:19.000Z,101281
2019-02-06T01:24:18.000Z,101285
2019-02-06T01:25:48.000Z,101281
2019-02-06T01:27:03.000Z,101282
2019-02-06T01:29:18.000Z,101279
2019-02-06T01:31:03.000Z,101277
2019-02-06T01:32:48.000Z,101287
2019-02-06T01:34:18.000Z,101279
2019-02-06T01:35:48.000Z,101282
2019-02-06T01:37:18.000Z,101282
2019-02-06T01:38:18.000Z,101285
2019-02-06T01:39:18.000Z,101283
2019-02-06T01:40:48.000Z,101283
2019-02-06T01:43:03.000Z,101286
2019-02-06T01:44:18.000Z,101284
2019-02-06T01:46:18.000Z,101280
2019-02-06T01:47:18.000Z,101275
2019-02-06T01:49:18.000Z,101278
2019-02-06T01:51:03.000Z,101272
2019-02-06T01:52:03.000Z,101270
2019-02-06T01:53:03.000Z,101272
2019-02-06T01:55:03.000Z,101276
2019-02-06T01:57:18.000Z,101274
2019-02-06T01:59:18.000Z,101272
2019-02-06T02:01:18.000Z,101277
2019-02-06T02:02:18.000Z,101272
2019-02-06T02:04:18.000Z,101274
2019-02-06T02:05:48.000Z,101271
2019-02-06T02:07:18.000Z,101265
2019-02-06T02:08:18.000Z,101264
2019-02-06T02:09:18.000Z,101265
2019-02-06T02:10:48.000Z,101265
2019-02-06T02:12:18.000Z,101259
2019-02-06T02:13:18.000Z,101257
2019-02-06T02:15:18.000Z,101249
2019-02-06T02:17:18.000Z,101240
2019-02-06T02:18:18.000Z,101244
2019-02-06T02:20:03.000Z,101245
2019-02-06T02:22:03.000Z,101244
2019-02-06T02:23:18.000Z,101237
2019-02-06T02:24:48.000Z,101244
2019-02-06T02:25:48.000Z,101235
2019-02-06T02:27:18.000Z,101233
2019-02-06T02:29:18.000Z,101229
2019-02-06T02:30:18.000Z,101232
2019-02-06T02:32:18.000Z,101226
2019-02-06T02:33:48.000Z,101222
2019-02-06T02:35:18.000Z,101220
2019-02-06T02:37:03.000Z,101215
2019-02-06T02:38:03.000Z,101210
2019-02-06T02:39:18.000Z,101216
2019-02-06T02:41:03.000Z,101212
2019-02-06T02:43:18.000Z,101208
2019-02-06T02:45:18.000Z,101201
2019-02-06T02:47:03.000Z,101198
2019-02-06T02:48:18.000Z,101207
2019-02-06T02:50:03.000Z,101200
2019-02-06T02:51:03.000Z,101199
2019-02-06T02:52:18.000Z,101196
2019-02-06T02:53:18.000Z,101191
2019-02-06T02:55:18.000Z,101192
2019-02-06T02:56:18.000Z,101190
2019-02-06T02:58:18.000Z,101181
2019-02-06T03:00:03.000Z,101187
2019-02-06T03:01:18.000Z,101183
2019-02-06T03:02:18.000Z,101180
2019-02-06T03:04:18.000Z,101176
2019-02-06T03:06:03.000Z,101172
2019-02-06T03:07:18.000Z,101167
2019-02-06T03:09:18.000Z,101169
2019-02-06T03:11:18.000Z,101160
2019-02-06T03:13:18.000Z,101157
2019-02-06T03:15:03.000Z,101154
2019-02-06T03:16:18.000Z,101157
2019-02-06T03:18:18.000Z,101148
2019-02-06T03:19:48.000Z,101159
2019-02-06T03:21:18.000Z,101150
2019-02-06T03:23:18.000Z,101146
2019-02-06T03:25:03.000Z,101151
2019-02-06T03:26:18.000Z,101147
2019-02-06T03:27:18.000Z,101147
2019-02-06T03:29:18.000Z,101147
2019-02-06T03:30:18.000Z,101139
2019-02-06T03:32:18.000Z,101133
2019-02-06T03:33:18.000Z,101128
2019-02-06T03:35:03.000Z,101129
2019-02-06T03:36:19.000Z,101131
2019-02-06T03:38:19.000Z,101120
2019-02-06T03:40:19.000Z,101113
2019-02-06T03:41:19.000Z,101116
2019-02-06T03:42:19.000Z,101114
2019-02-06T03:44:19.000Z,101118
2019-02-06T03:46:03.000Z,101115
2019-02-06T03:47:03.000Z,101112
2019-02-06T03:48:19.000Z,101119
2019-02-06T03:49:19.000Z,101119
2019-02-06T03:50:19.000Z,101112
2019-02-06T03:52:04.000Z,101111
2019-02-06T03:54:19.000Z,101119
2019-02-06T03:56:19.000Z,101110
2019-02-06T03:57:19.000Z,101113
2019-02-06T03:59:19.000Z,101107
2019-02-06T04:01:03.000Z,101111
2019-02-06T04:02:19.000Z,101106
2019-02-06T04:04:19.000Z,101099
2019-02-06T04:05:19.000Z,101100
2019-02-06T04:06:57.000Z,101097
2019-02-06T04:08:19.000Z,101102
2019-02-06T04:09:19.000Z,101097
2019-02-06T04:11:19.000Z,101100
2019-02-06T04:13:19.000Z,101097
2019-02-06T04:15:03.000Z,101100
2019-02-06T04:16:19.000Z,101093
2019-02-06T04:17:19.000Z,101097
2019-02-06T04:19:04.000Z,101089
2019-02-06T04:20:19.000Z,101085
2019-02-06T04:22:19.000Z,101086
2019-02-06T04:24:03.000Z,101090
2019-02-06T04:26:19.000Z,101082
2019-02-06T04:27:19.000Z,101084
2019-02-06T04:28:19.000Z,101078
2019-02-06T04:30:19.000Z,101083
2019-02-06T04:31:19.000Z,101075
2019-02-06T04:33:03.000Z,101072
2019-02-06T04:34:19.000Z,101075
2019-02-06T04:35:19.000Z,101071
2019-02-06T04:37:04.000Z,101068
2019-02-06T04:39:04.000Z,101073
2019-02-06T04:40:19.000Z,101068
2019-02-06T04:42:19.000Z,101068
2019-02-06T04:43:49.000Z,101065
2019-02-06T04:45:19.000Z,101064
2019-02-06T04:47:04.000Z,101066
2019-02-06T04:48:04.000Z,101064
2019-02-06T04:49:19.000Z,101056
2019-02-06T04:51:19.000Z,101059
2019-02-06T04:53:19.000Z,101052
2019-02-06T04:54:19.000Z,101053
2019-02-06T04:55:19.000Z,101052
2019-02-06T04:57:19.000Z,101053
2019-02-06T04:59:04.000Z,101055
2019-02-06T05:00:19.000Z,101056
2019-02-06T05:02:19.000Z,101060
2019-02-06T05:04:04.000Z,101060
2019-02-06T05:05:19.000Z,101053
2019-02-06T05:06:19.000Z,101054
2019-02-06T05:08:19.000Z,101055
2019-02-06T05:09:19.000Z,101052
2019-02-06T05:11:19.000Z,101054
2019-02-06T05:13:19.000Z,101056
2019-02-06T05:15:19.000Z,101054
2019-02-06T05:17:19.000Z,101052
2019-02-06T05:18:48.000Z,101047
2019-02-06T05:20:19.000Z,101055
2019-02-06T05:21:49.000Z,101055
2019-02-06T05:23:19.000Z,101050
2019-02-06T05:25:04.000Z,101052
2019-02-06T05:26:19.000Z,101046
2019-02-06T05:27:19.000Z,101045
2019-02-06T05:29:04.000Z,101046
2019-02-06T05:31:04.000Z,101045
2019-02-06T05:33:04.000Z,101043
2019-02-06T05:34:19.000Z,101039
2019-02-06T05:36:19.000Z,101035
2019-02-06T05:38:19.000Z,101040
2019-02-06T05:40:04.000Z,101034
2019-02-06T05:41:19.000Z,101025
2019-02-06T05:42:49.000Z,101037
2019-02-06T05:44:18.000Z,101030
2019-02-06T05:46:03.000Z,101022
2019-02-06T05:47:18.000Z,101014
2019-02-06T05:48:18.000Z,101012
2019-02-06T05:50:18.000Z,101011
2019-02-06T05:51:18.000Z,101003
2019-02-06T05:53:03.000Z,101007
2019-02-06T05:54:03.000Z,101007
2019-02-06T05:56:18.000Z,101005
2019-02-06T05:58:18.000Z,101006
2019-02-06T06:00:18.000Z,101012
2019-02-06T06:01:48.000Z,101016
2019-02-06T06:03:18.000Z,101012
2019-02-06T06:05:18.000Z,101021
2019-02-06T06:06:48.000Z,101006
2019-02-06T06:08:18.000Z,101014
2019-02-06T06:10:03.000Z,101022
2019-02-06T06:11:18.000Z,101020
2019-02-06T06:12:18.000Z,101010
2019-02-06T06:13:48.000Z,101005
2019-02-06T06:15:18.000Z,101002
2019-02-06T06:17:18.000Z,100993
2019-02-06T06:18:18.000Z,100993
2019-02-06T06:20:18.000Z,100996
2019-02-06T06:21:48.000Z,100995
2019-02-06T06:23:18.000Z,100991
2019-02-06T06:24:18.000Z,100992
2019-02-06T06:26:18.000Z,100996
2019-02-06T06:28:18.000Z,100988
2019-02-06T06:30:03.000Z,100990
2019-02-06T06:31:03.000Z,100985
2019-02-06T06:33:18.000Z,100986
2019-02-06T06:35:18.000Z,100991
2019-02-06T06:36:18.000Z,100987
2019-02-06T06:38:02.000Z,100984
2019-02-06T06:39:03.000Z,100980
2019-02-06T06:41:18.000Z,100983
2019-02-06T06:42:18.000Z,100992
2019-02-06T06:43:18.000Z,101000
2019-02-06T06:44:48.000Z,100990
2019-02-06T06:46:03.000Z,100994
2019-02-06T06:48:19.000Z,101003
2019-02-06T06:50:19.000Z,101003
2019-02-06T06:51:49.000Z,101000
2019-02-06T06:54:04.000Z,100990
2019-02-06T06:56:19.000Z,100978
2019-02-06T06:58:19.000Z,100979
2019-02-06T06:59:19.000Z,100976
2019-02-06T07:01:19.000Z,100986
2019-02-06T07:02:19.000Z,100970
2019-02-06T07:04:19.000Z,100965
2019-02-06T07:06:04.000Z,100963
2019-02-06T07:07:19.000Z,100956
2019-02-06T07:09:04.000Z,100967
2019-02-06T07:10:19.000Z,100964
2019-02-06T07:12:19.000Z,100968
2019-02-06T07:13:19.000Z,100970
2019-02-06T07:14:49.000Z,100964
2019-02-06T07:16:19.000Z,100970
2019-02-06T07:18:19.000Z,100968
2019-02-06T07:20:04.000Z,100972
2019-02-06T07:21:19.000Z,100967
2019-02-06T07:22:49.000Z,100963
2019-02-06T07:24:19.000Z,100974
2019-02-06T07:26:04.000Z,100977
2019-02-06T07:27:19.000Z,100978
2019-02-06T07:29:19.000Z,100977
2019-02-06T07:31:19.000Z,100982
2019-02-06T07:33:04.000Z,100981
2019-02-06T07:34:19.000Z,100979
2019-02-06T07:36:19.000Z,100990
2019-02-06T07:37:49.000Z,100982
2019-02-06T07:39:19.000Z,100984
2019-02-06T07:41:04.000Z,100977
2019-02-06T07:42:19.000Z,100981
2019-02-06T07:43:19.000Z,100983
2019-02-06T07:45:19.000Z,100988
2019-02-06T07:47:04.000Z,100988
2019-02-06T07:48:19.000Z,100987
2019-02-06T07:50:19.000Z,100986
2019-02-06T07:51:19.000Z,100987
2019-02-06T07:52:48.000Z,100987
2019-02-06T07:54:18.000Z,100981
2019-02-06T07:56:03.000Z,100977
2019-02-06T07:57:18.000Z,100978
2019-02-06T07:58:48.000Z,100981
2019-02-06T08:00:18.000Z,100978
2019-02-06T08:02:18.000Z,100981
2019-02-06T08:03:18.000Z,100981
2019-02-06T08:05:18.000Z,100976
2019-02-06T08:06:18.000Z,100991
2019-02-06T08:08:18.000Z,100974
2019-02-06T08:09:18.000Z,100981
2019-02-06T08:11:03.000Z,100971
2019-02-06T08:12:18.000Z,100971
2019-02-06T08:14:18.000Z,100973
2019-02-06T08:15:18.000Z,100976
2019-02-06T08:17:18.000Z,100981
2019-02-06T08:19:03.000Z,100972
2019-02-06T08:20:03.000Z,100983
2019-02-06T08:21:18.000Z,100981
2019-02-06T08:23:18.000Z,100971
2019-02-06T08:24:18.000Z,100972
2019-02-06T08:26:18.000Z,100962
2019-02-06T08:28:18.000Z,100966
2019-02-06T08:30:18.000Z,100968
2019-02-06T08:32:03.000Z,100963
2019-02-06T08:33:03.000Z,100954
2019-02-06T08:35:03.000Z,100954
2019-02-06T08:36:18.000Z,100948
2019-02-06T08:38:03.000Z,100953
2019-02-06T08:40:18.000Z,100953
2019-02-06T08:42:18.000Z,100964
2019-02-06T08:44:03.000Z,100959
2019-02-06T08:46:18.000Z,100956
2019-02-06T08:48:18.000Z,100953
2019-02-06T08:49:18.000Z,100952
2019-02-06T08:50:18.000Z,100958
2019-02-06T08:52:18.000Z,100961
2019-02-06T08:53:18.000Z,100960
2019-02-06T08:55:18.000Z,100959
2019-02-06T08:57:03.000Z,100955
2019-02-06T08:58:18.000Z,100954
2019-02-06T09:00:18.000Z,100951
2019-02-06T09:01:48.000Z,100953
2019-02-06T09:03:18.000Z,100956
2019-02-06T09:04:55.000Z,100950
2019-02-06T09:06:03.000Z,100950
2019-02-06T09:07:18.000Z,100952
2019-02-06T09:08:58.000Z,100953
2019-02-06T09:10:18.000Z,100952
2019-02-06T09:12:03.000Z,100953
2019-02-06T09:13:03.000Z,100961
2019-02-06T09:14:18.000Z,100962
2019-02-06T09:16:18.000Z,100962
2019-02-06T09:18:18.000Z,100969
2019-02-06T09:20:18.000Z,100960
2019-02-06T09:22:18.000Z,100964
2019-02-06T09:24:18.000Z,100965
2019-02-06T09:26:18.000Z,100976
2019-02-06T09:27:18.000Z,100967
2019-02-06T09:29:18.000Z,100968
2019-02-06T09:31:03.000Z,100971
2019-02-06T09:32:18.000Z,100967
2019-02-06T09:33:18.000Z,100969
2019-02-06T09:35:03.000Z,100973
2019-02-06T09:36:18.000Z,100977
2019-02-06T09:38:03.000Z,100982
2019-02-06T09:39:03.000Z,100980
2019-02-06T09:40:49.000Z,100971
2019-02-06T09:42:18.000Z,100979
2019-02-06T09:44:18.000Z,100980
2019-02-06T09:45:18.000Z,100979
2019-02-06T09:47:03.000Z,100979
2019-02-06T09:48:18.000Z,100979
2019-02-06T09:49:48.000Z,100971
2019-02-06T09:51:18.000Z,100972
2019-02-06T09:53:18.000Z,100969
2019-02-06T09:54:18.000Z,100976
2019-02-06T09:56:18.000Z,100967
2019-02-06T09:58:18.000Z,100970
2019-02-06T09:59:18.000Z,100975
2019-02-06T10:00:18.000Z,100978
2019-02-06T10:02:04.000Z,100979
2019-02-06T10:04:04.000Z,100975
2019-02-06T10:06:19.000Z,100975
2019-02-06T10:08:19.000Z,100976
2019-02-06T10:09:19.000Z,100975
2019-02-06T10:11:19.000Z,100970
2019-02-06T10:13:04.000Z,100976
2019-02-06T10:14:19.000Z,100978
2019-02-06T10:16:04.000Z,100979
2019-02-06T10:17:19.000Z,100981
2019-02-06T10:19:19.000Z,100987
2019-02-06T10:20:19.000Z,100986
2019-02-06T10:21:49.000Z,100988
2019-02-06T10:23:19.000Z,100992
2019-02-06T10:24:19.000Z,100997
2019-02-06T10:25:19.000Z,100991
2019-02-06T10:27:04.000Z,100997
2019-02-06T10:29:19.000Z,100995
2019-02-06T10:31:04.000Z,100994
2019-02-06T10:32:19.000Z,100997
2019-02-06T10:34:19.000Z,100997
2019-02-06T10:35:52.000Z,100988
2019-02-06T10:37:19.000Z,100994
2019-02-06T10:38:19.000Z,100989
2019-02-06T10:40:04.000Z,100992
2019-02-06T10:42:19.000Z,100986
2019-02-06T10:43:19.000Z,100993
2019-02-06T10:45:19.000Z,100988
2019-02-06T10:46:19.000Z,100989
2019-02-06T10:47:19.000Z,100994
2019-02-06T10:49:19.000Z,101008
2019-02-06T10:51:04.000Z,100989
2019-02-06T10:52:19.000Z,100976
2019-02-06T10:54:19.000Z,100976
2019-02-06T10:55:49.000Z,100963
2019-02-06T10:57:19.000Z,100965
2019-02-06T10:59:04.000Z,100967
2019-02-06T11:00:19.000Z,100971
2019-02-06T11:02:19.000Z,100968
2019-02-06T11:03:19.000Z,100959
2019-02-06T11:04:19.000Z,100957
2019-02-06T11:06:19.000Z,100960
2019-02-06T11:07:19.000Z,100959
2019-02-06T11:09:19.000Z,100958
2019-02-06T11:10:49.000Z,100950
2019-02-06T11:12:19.000Z,100953
2019-02-06T11:13:49.000Z,100947
2019-02-06T11:15:19.000Z,100967
2019-02-06T11:17:19.000Z,100948
2019-02-06T11:18:19.000Z,100949
2019-02-06T11:20:04.000Z,100938
2019-02-06T11:21:19.000Z,100954
2019-02-06T11:22:19.000Z,100941
2019-02-06T11:24:19.000Z,100938
2019-02-06T11:26:04.000Z,100932
2019-02-06T11:28:04.000Z,100938
2019-02-06T11:30:19.000Z,100944
2019-02-06T11:32:19.000Z,100922
2019-02-06T11:33:49.000Z,100928
2019-02-06T11:35:19.000Z,100929
2019-02-06T11:36:48.000Z,100936
2019-02-06T11:38:19.000Z,100932
2019-02-06T11:39:19.000Z,100930
2019-02-06T11:41:19.000Z,100925
2019-02-06T11:43:19.000Z,100922
2019-02-06T11:44:19.000Z,100923
2019-02-06T11:46:19.000Z,100919
2019-02-06T11:48:19.000Z,100918
2019-02-06T11:49:19.000Z,100912
2019-02-06T11:51:04.000Z,100912
2019-02-06T11:53:19.000Z,100912
2019-02-06T11:55:19.000Z,100905
2019-02-06T11:56:19.000Z,100904
2019-02-06T11:58:19.000Z,100900
2019-02-06T11:59:48.000Z,100899
2019-02-06T12:01:19.000Z,100899
2019-02-06T12:03:19.000Z,100901
2019-02-06T12:04:49.000Z,100903
2019-02-06T12:06:19.000Z,100898
2019-02-06T12:07:19.000Z,100900
2019-02-06T12:08:49.000Z,100889
2019-02-06T12:10:04.000Z,100893
2019-02-06T12:11:49.000Z,100896
2019-02-06T12:13:19.000Z,100889
2019-02-06T12:15:04.000Z,100894
2019-02-06T12:16:19.000Z,100889
2019-02-06T12:18:19.000Z,100890
2019-02-06T12:19:49.000Z,100887
2019-02-06T12:21:19.000Z,100897
2019-02-06T12:22:19.000Z,100887
2019-02-06T12:23:19.000Z,100898
2019-02-06T12:25:04.000Z,100881
2019-02-06T12:26:19.000Z,100895
2019-02-06T12:28:04.000Z,100879
2019-02-06T12:30:19.000Z,100887
2019-02-06T12:31:19.000Z,100872
2019-02-06T12:32:49.000Z,100872
2019-02-06T12:34:19.000Z,100869
2019-02-06T12:36:19.000Z,100872
2019-02-06T12:37:19.000Z,100869
2019-02-06T12:38:49.000Z,100860
2019-02-06T12:40:19.000Z,100857
2019-02-06T12:41:49.000Z,100853
2019-02-06T12:44:19.000Z,100860
2019-02-06T12:45:19.000Z,100852
2019-02-06T12:46:19.000Z,100856
2019-02-06T12:48:04.000Z,100857
2019-02-06T12:50:04.000Z,100851
2019-02-06T12:51:49.000Z,100861
2019-02-06T12:53:19.000Z,100853
2019-02-06T12:55:19.000Z,100861
2019-02-06T12:57:19.000Z,100856
2019-02-06T12:59:04.000Z,100861
2019-02-06T13:00:19.000Z,100870
2019-02-06T13:01:19.000Z,100862
2019-02-06T13:03:19.000Z,100863
2019-02-06T13:05:04.000Z,100863
2019-02-06T13:07:19.000Z,100862
2019-02-06T13:09:19.000Z,100858
2019-02-06T13:10:19.000Z,100854
2019-02-06T13:12:19.000Z,100855
2019-02-06T13:14:04.000Z,100854
2019-02-06T13:15:19.000Z,100847
2019-02-06T13:16:19.000Z,100848
2019-02-06T13:18:04.000Z,100843
2019-02-06T13:20:19.000Z,100843
2019-02-06T13:22:19.000Z,100853
2019-02-06T13:23:19.000Z,100844
2019-02-06T13:25:19.000Z,100838
2019-02-06T13:26:19.000Z,100841
2019-02-06T13:28:04.000Z,100837
2019-02-06T13:30:19.000Z,100829
2019-02-06T13:32:19.000Z,100829
2019-02-06T13:33:48.000Z,100824
2019-02-06T13:35:19.000Z,100823
2019-02-06T13:37:03.000Z,100820
2019-02-06T13:38:19.000Z,100825
2019-02-06T13:40:19.000Z,100806
2019-02-06T13:41:49.000Z,100805
2019-02-06T13:43:19.000Z,100800
2019-02-06T13:44:19.000Z,100804
2019-02-06T13:46:04.000Z,100808
2019-02-06T13:48:19.000Z,100810
2019-02-06T13:50:19.000Z,100815
2019-02-06T13:52:03.000Z,100804
2019-02-06T13:53:19.000Z,100796
2019-02-06T13:55:19.000Z,100806
2019-02-06T13:56:49.000Z,100798
2019-02-06T13:58:19.000Z,100796
2019-02-06T14:00:19.000Z,100793
2019-02-06T14:02:19.000Z,100799
2019-02-06T14:03:19.000Z,100797
2019-02-06T14:04:19.000Z,100787
2019-02-06T14:06:03.000Z,100786
2019-02-06T14:07:04.000Z,100779
2019-02-06T14:08:19.000Z,100782
2019-02-06T14:10:19.000Z,100773
2019-02-06T14:12:19.000Z,100762
2019-02-06T14:14:19.000Z,100767
2019-02-06T14:15:19.000Z,100766
2019-02-06T14:16:19.000Z,100764
2019-02-06T14:18:19.000Z,100761
2019-02-06T14:19:19.000Z,100756
2019-02-06T14:21:19.000Z,100756
2019-02-06T14:23:04.000Z,100766
2019-02-06T14:24:19.000Z,100764
2019-02-06T14:26:19.000Z,100763
2019-02-06T14:27:49.000Z,100759
2019-02-06T14:29:19.000Z,100762
2019-02-06T14:31:04.000Z,100757
2019-02-06T14:32:19.000Z,100756
2019-02-06T14:34:19.000Z,100751
2019-02-06T14:35:19.000Z,100747
2019-02-06T14:37:19.000Z,100737
2019-02-06T14:39:04.000Z,100740
2019-02-06T14:40:19.000Z,100733
2019-02-06T14:42:04.000Z,100730
2019-02-06T14:43:19.000Z,100727
2019-02-06T14:45:19.000Z,100722
2019-02-06T14:47:19.000Z,100717
2019-02-06T14:49:19.000Z,100713
2019-02-06T14:51:04.000Z,100714
2019-02-06T14:53:19.000Z,100713
2019-02-06T14:55:04.000Z,100715
2019-02-06T14:56:19.000Z,100715
2019-02-06T14:58:19.000Z,100708
2019-02-06T14:59:19.000Z,100702
2019-02-06T15:01:00.000Z,100699
2019-02-06T15:02:19.000Z,100696
2019-02-06T15:03:19.000Z,100694
2019-02-06T15:05:19.000Z,100691
2019-02-06T15:07:19.000Z,100693
2019-02-06T15:08:19.000Z,100693
2019-02-06T15:10:19.000Z,100696
2019-02-06T15:12:19.000Z,100689
2019-02-06T15:14:19.000Z,100692
2019-02-06T15:16:04.000Z,100695
2019-02-06T15:17:04.000Z,100694
2019-02-06T15:19:19.000Z,100696
2019-02-06T15:21:19.000Z,100697
2019-02-06T15:22:49.000Z,100698
2019-02-06T15:24:19.000Z,100700
2019-02-06T15:25:49.000Z,100702
2019-02-06T15:27:19.000Z,100692
2019-02-06T15:29:19.000Z,100692
2019-02-06T15:30:19.000Z,100691
2019-02-06T15:32:19.000Z,100683
2019-02-06T15:34:04.000Z,100689
2019-02-06T15:35:19.000Z,100681
2019-02-06T15:36:19.000Z,100677
2019-02-06T15:37:19.000Z,100676
2019-02-06T15:38:49.000Z,100682
2019-02-06T15:40:19.000Z,100675
2019-02-06T15:42:04.000Z,100673
2019-02-06T15:43:19.000Z,100671
2019-02-06T15:44:19.000Z,100678
2019-02-06T15:46:19.000Z,100680
2019-02-06T15:47:19.000Z,100671
2019-02-06T15:49:19.000Z,100673
2019-02-06T15:51:19.000Z,100666
2019-02-06T15:53:04.000Z,100660
2019-02-06T15:54:19.000Z,100662
2019-02-06T15:56:04.000Z,100653
2019-02-06T15:58:19.000Z,100670
2019-02-06T16:00:19.000Z,100661
2019-02-06T16:01:19.000Z,100655
2019-02-06T16:03:19.000Z,100653
2019-02-06T16:05:19.000Z,100660
2019-02-06T16:07:04.000Z,100649
2019-02-06T16:08:19.000Z,100640
2019-02-06T16:09:19.000Z,100640
2019-02-06T16:11:19.000Z,100645
2019-02-06T16:13:19.000Z,100633
2019-02-06T16:15:19.000Z,100634
2019-02-06T16:17:19.000Z,100632
2019-02-06T16:19:19.000Z,100637
2019-02-06T16:21:19.000Z,100627
2019-02-06T16:23:04.000Z,100635
2019-02-06T16:24:19.000Z,100623
2019-02-06T16:26:19.000Z,100629
2019-02-06T16:28:04.000Z,100628
2019-02-06T16:29:19.000Z,100620
2019-02-06T16:31:19.000Z,100626
2019-02-06T16:32:49.000Z,100620
2019-02-06T16:34:19.000Z,100620
2019-02-06T16:36:03.000Z,100606
2019-02-06T16:37:19.000Z,100608
2019-02-06T16:39:03.000Z,100606
2019-02-06T16:40:19.000Z,100608
2019-02-06T16:41:53.000Z,100602
2019-02-06T16:43:04.000Z,100596
2019-02-06T16:45:19.000Z,100603
2019-02-06T16:47:19.000Z,100598
2019-02-06T16:48:19.000Z,100597
2019-02-06T16:50:19.000Z,100594
2019-02-06T16:52:19.000Z,100600
2019-02-06T16:54:19.000Z,100599
2019-02-06T16:56:19.000Z,100609
2019-02-06T16:58:19.000Z,100597
2019-02-06T17:00:19.000Z,100593
2019-02-06T17:02:19.000Z,100587
2019-02-06T17:03:49.000Z,100602
2019-02-06T17:05:19.000Z,100596
2019-02-06T17:07:03.000Z,100588
2019-02-06T17:08:19.000Z,100592
2019-02-06T17:10:03.000Z,100592
2019-02-06T17:11:19.000Z,100589
2019-02-06T17:13:03.000Z,100595
2019-02-06T17:14:04.000Z,100587
2019-02-06T17:16:03.000Z,100606
2019-02-06T17:17:19.000Z,100595
2019-02-06T17:19:19.000Z,100592
2019-02-06T17:21:19.000Z,100596
2019-02-06T17:23:03.000Z,100598
2019-02-06T17:24:19.000Z,100604
2019-02-06T17:26:19.000Z,100593
2019-02-06T17:27:19.000Z,100598
2019-02-06T17:29:19.000Z,100591
2019-02-06T17:31:03.000Z,100596
2019-02-06T17:32:04.000Z,100598
2019-02-06T17:34:19.000Z,100593
2019-02-06T17:35:48.000Z,100594
2019-02-06T17:37:18.000Z,100596
2019-02-06T17:38:49.000Z,100592
2019-02-06T17:40:18.000Z,100599
2019-02-06T17:42:03.000Z,100598
2019-02-06T17:43:48.000Z,100589
2019-02-06T17:45:18.000Z,100596
2019-02-06T17:47:03.000Z,100581
2019-02-06T17:48:03.000Z,100594
2019-02-06T17:50:18.000Z,100576
2019-02-06T17:51:18.000Z,100587
2019-02-06T17:53:18.000Z,100563
2019-02-06T17:55:18.000Z,100570
2019-02-06T17:56:18.000Z,100573
2019-02-06T17:58:18.000Z,100572
2019-02-06T17:59:18.000Z,100573
2019-02-06T18:01:18.000Z,100569
2019-02-06T18:03:18.000Z,100561
2019-02-06T18:05:18.000Z,100564
2019-02-06T18:06:18.000Z,100562
2019-02-06T18:07:48.000Z,100561
2019-02-06T18:10:18.000Z,100560
2019-02-06T18:12:18.000Z,100557
2019-02-06T18:14:18.000Z,100564
2019-02-06T18:16:18.000Z,100564
2019-02-06T18:18:18.000Z,100568
2019-02-06T18:20:18.000Z,100572
2019-02-06T18:22:18.000Z,100571
2019-02-06T18:24:03.000Z,100573
2019-02-06T18:25:18.000Z,100572
2019-02-06T18:27:18.000Z,100574
2019-02-06T18:29:18.000Z,100573
2019-02-06T18:31:18.000Z,100561
2019-02-06T18:33:18.000Z,100564
2019-02-06T18:35:18.000Z,100561
2019-02-06T18:36:18.000Z,100557
2019-02-06T18:38:03.000Z,100558
2019-02-06T18:39:03.000Z,100550
2019-02-06T18:41:19.000Z,100558
2019-02-06T18:43:19.000Z,100551
2019-02-06T18:45:19.000Z,100551
2019-02-06T18:47:04.000Z,100547
2019-02-06T18:48:19.000Z,100543
2019-02-06T18:50:19.000Z,100541
2019-02-06T18:52:19.000Z,100538
2019-02-06T18:53:48.000Z,100537
2019-02-06T18:55:19.000Z,100541
2019-02-06T18:57:19.000Z,100541
2019-02-06T18:59:19.000Z,100532
2019-02-06T19:00:49.000Z,100530
2019-02-06T19:02:19.000Z,100525
2019-02-06T19:04:04.000Z,100528
2019-02-06T19:06:04.000Z,100528
2019-02-06T19:08:04.000Z,100535
2019-02-06T19:09:19.000Z,100526
2019-02-06T19:11:19.000Z,100520
2019-02-06T19:13:05.000Z,100518
2019-02-06T19:14:19.000Z,100517
2019-02-06T19:15:49.000Z,100517
2019-02-06T19:17:19.000Z,100521
2019-02-06T19:18:19.000Z,100521
2019-02-06T19:20:19.000Z,100520
2019-02-06T19:22:04.000Z,100513
2019-02-06T19:23:19.000Z,100510
2019-02-06T19:24:19.000Z,100520
2019-02-06T19:25:49.000Z,100510
2019-02-06T19:27:19.000Z,100503
2019-02-06T19:29:04.000Z,100502
2019-02-06T19:30:19.000Z,100495
2019-02-06T19:32:04.000Z,100492
2019-02-06T19:33:19.000Z,100490
2019-02-06T19:35:04.000Z,100489
2019-02-06T19:36:19.000Z,100495
2019-02-06T19:37:19.000Z,100494
2019-02-06T19:39:04.000Z,100485
2019-02-06T19:40:04.000Z,100485
2019-02-06T19:42:19.000Z,100486
2019-02-06T19:44:04.000Z,100483
2019-02-06T19:45:19.000Z,100485
2019-02-06T19:47:19.000Z,100487
2019-02-06T19:49:18.000Z,100484
2019-02-06T19:51:03.000Z,100481
2019-02-06T19:52:19.000Z,100474
2019-02-06T19:54:03.000Z,100482
2019-02-06T19:56:04.000Z,100484
2019-02-06T19:57:04.000Z,100489
2019-02-06T19:59:19.000Z,100487
2019-02-06T20:00:19.000Z,100492